Flight Track Log - Related Links

Times and Time Zones

All times are in EST time to prevent confusion due to time zone crossing. See the BLF291 flight status page for this flight to view local times or setup timezone preferences in your user account.

Time Position Orientation Groundspeed Altitude Reporting Facility
EST Latitude Longitude Course Direction KTS MPH feet Rate Location/Type
Fri 04:35:49 AM 60.4073 24.9622 360° North  Level Estimated
Fri 04:36:49 AM 60.5175 24.9609 360° North  Level Estimated
Fri 04:37:49 AM 60.6278 24.9595 360° North  Level Estimated
Fri 04:38:49 AM 60.7381 24.9582 360° North  Level Estimated
Fri 04:39:49 AM 60.8483 24.9568 360° North  Level Estimated
Fri 04:40:49 AM 60.9586 24.9554 360° North  Level Estimated
Fri 04:41:49 AM 61.0689 24.9540 360° North  Level Estimated
Fri 04:42:49 AM 61.1791 24.9526 360° North  Level Estimated
Fri 04:43:49 AM 61.2894 24.9512 360° North  Level Estimated
Fri 04:44:49 AM 61.3997 24.9498 360° North  Level Estimated
Fri 04:45:49 AM 61.5099 24.9483 360° North  Level Estimated
Fri 04:46:49 AM 61.6202 24.9469 360° North  Level Estimated
Fri 04:47:49 AM 61.7304 24.9454 360° North  Level Estimated
Fri 04:48:49 AM 61.8407 24.9440 360° North  Level Estimated
Fri 04:49:49 AM 61.9510 24.9425 360° North  Level Estimated
Fri 04:50:49 AM 62.0612 24.9410 360° North  Level Estimated
Fri 04:51:49 AM 62.1715 24.9395 360° North  Level Estimated
Fri 04:52:49 AM 62.2818 24.9380 360° North  Level Estimated
Fri 04:53:49 AM 62.3920 24.9365 360° North  Level Estimated
Fri 04:54:49 AM 62.5023 24.9349 360° North  Level Estimated
Fri 04:55:49 AM 62.6125 24.9334 360° North  Level Estimated
Fri 04:56:49 AM 62.7228 24.9318 360° North  Level Estimated
Fri 04:57:49 AM 62.8331 24.9303 360° North  Level Estimated
Fri 04:58:49 AM 62.9433 24.9287 360° North  Level Estimated
Fri 04:59:49 AM 63.0536 24.9271 360° North  Level Estimated
Fri 05:00:49 AM 63.1639 24.9255 360° North  Level Estimated
Fri 05:01:49 AM 63.2741 24.9239 360° North  Level Estimated
Fri 05:02:49 AM 63.3844 24.9223 360° North  Level Estimated
Fri 05:03:49 AM 63.4947 24.9206 360° North  Level Estimated
Fri 05:04:49 AM 63.6049 24.9190 360° North  Level Estimated
Fri 05:05:49 AM 63.7152 24.9173 360° North  Level Estimated
Fri 05:06:49 AM 63.8255 24.9156 360° North  Level Estimated
Fri 05:07:49 AM 63.9357 24.9139 360° North  Level Estimated
Fri 05:08:49 AM 64.0460 24.9122 360° North  Level Estimated
Fri 05:09:49 AM 64.1562 24.9105 360° North  Level Estimated
Fri 05:10:49 AM 64.2665 24.9088 360° North  Level Estimated
Fri 05:11:49 AM 64.3768 24.9070 360° North  Level Estimated
Fri 05:12:49 AM 64.4871 24.9053 360° North  Level Estimated
Fri 05:13:49 AM 64.5973 24.9035 360° North  Level Estimated
Fri 05:14:49 AM 64.7076 24.9017 360° North  Level Estimated
Fri 05:15:49 AM 64.8178 24.8999 360° North  Level Estimated
Fri 05:16:49 AM 64.9281 24.8981 360° North  Level Estimated
Fri 05:17:49 AM 65.0384 24.8963 360° North  Level Estimated
Fri 05:18:49 AM 65.1487 24.8944 360° North  Level Estimated
Fri 05:19:49 AM 65.2589 24.8925 360° North  Level Estimated
Fri 05:20:49 AM 65.3692 24.8907 360° North  Level Estimated
Fri 05:21:49 AM 65.4795 24.8888 360° North  Level Estimated
Fri 05:22:49 AM 65.5897 24.8869 360° North  Level Estimated
Fri 05:23:49 AM 65.7000 24.8849 360° North  Level Estimated
Fri 05:24:49 AM 65.8103 24.8830 360° North  Level Estimated
Fri 05:25:49 AM 65.9205 24.8810 360° North  Level Estimated
Fri 05:26:49 AM 66.0308 24.8790 360° North  Level Estimated
Fri 05:27:49 AM 66.1411 24.8771 360° North  Level Estimated
Fri 05:28:49 AM 66.2513 24.8750 360° North  Level Estimated
Fri 05:29:49 AM 66.3616 24.8730 360° North  Level Estimated
Fri 05:30:49 AM 66.4718 24.8710 360° North  Level Estimated
Fri 05:31:49 AM 66.5821 24.8689 360° North  Level Estimated
Fri 05:32:49 AM 66.6924 24.8668 360° North  Level Estimated
Fri 05:33:49 AM 66.8026 24.8647 360° North  Level Estimated
Fri 05:34:49 AM 66.9129 24.8626 360° North  Level Estimated
Fri 05:35:49 AM 67.0231 24.8605 360° North  Level Estimated
Fri 05:36:49 AM 67.1334 24.8583 360° North  Level Estimated
Fri 05:37:49 AM 67.2437 24.8561 360° North  Level Estimated
Fri 05:38:49 AM 67.3539 24.8539 360° North  Level Estimated
Fri 05:39:49 AM 67.4642 24.8517 360° North  Level Estimated
Fri 05:40:49 AM 67.5744 24.8494 360° North  Level Estimated
Fri 05:41:49 AM 67.6847 24.8472 360° North  Level Estimated
Fri 05:42:49 AM 67.7950 24.8449 180° South  Level Estimated
Fri 05:43:49 AM 67.6847 24.8472 360° North  Level Estimated
Fri 05:44:49 AM 67.7950 24.8449 180° South  Level Estimated
Fri 05:45:49 AM 67.6847 24.8472 360° North  Level Estimated
Fri 05:46:49 AM 67.7950 24.8449 360° North  Level Estimated

Login

Don't have an account? Register now (free) for customized features, flight alerts, and more!